sensor_id;sensor_type;location;lat;lon;timestamp;P1;durP1;ratioP1;P2;durP2;ratioP2
38901;SDS011;24661;53.566;9.910;2022-07-10T00:00:28;6.00;;;0.93;;
38901;SDS011;24661;53.566;9.910;2022-07-10T00:02:55;6.07;;;1.20;;
38901;SDS011;24661;53.566;9.910;2022-07-10T00:05:22;7.90;;;1.23;;
38901;SDS011;24661;53.566;9.910;2022-07-10T00:07:48;5.33;;;1.23;;
38901;SDS011;24661;53.566;9.910;2022-07-10T00:10:14;5.50;;;1.40;;
38901;SDS011;24661;53.566;9.910;2022-07-10T00:12:41;5.13;;;1.40;;
38901;SDS011;24661;53.566;9.910;2022-07-10T00:28:45;5.67;;;1.03;;
38901;SDS011;24661;53.566;9.910;2022-07-10T00:31:11;8.60;;;1.57;;
38901;SDS011;24661;53.566;9.910;2022-07-10T00:33:37;5.43;;;1.10;;
38901;SDS011;24661;53.566;9.910;2022-07-10T00:36:03;11.80;;;2.10;;
38901;SDS011;24661;53.566;9.910;2022-07-10T00:38:30;5.87;;;1.23;;
38901;SDS011;24661;53.566;9.910;2022-07-10T00:40:57;5.20;;;1.10;;
38901;SDS011;24661;53.566;9.910;2022-07-10T00:43:22;6.20;;;1.47;;
38901;SDS011;24661;53.566;9.910;2022-07-10T00:45:48;3.57;;;1.07;;
38901;SDS011;24661;53.566;9.910;2022-07-10T00:48:14;4.40;;;1.30;;
38901;SDS011;24661;53.566;9.910;2022-07-10T00:50:40;2.23;;;0.83;;
38901;SDS011;24661;53.566;9.910;2022-07-10T00:53:07;8.00;;;1.07;;
38901;SDS011;24661;53.566;9.910;2022-07-10T00:55:34;2.50;;;0.97;;
38901;SDS011;24661;53.566;9.910;2022-07-10T00:58:01;7.10;;;1.30;;
38901;SDS011;24661;53.566;9.910;2022-07-10T01:00:28;6.20;;;1.40;;
38901;SDS011;24661;53.566;9.910;2022-07-10T01:02:54;6.80;;;1.07;;
38901;SDS011;24661;53.566;9.910;2022-07-10T01:05:20;3.27;;;1.10;;
38901;SDS011;24661;53.566;9.910;2022-07-10T01:07:45;6.60;;;1.70;;
38901;SDS011;24661;53.566;9.910;2022-07-10T01:10:11;4.60;;;1.10;;
38901;SDS011;24661;53.566;9.910;2022-07-10T01:12:37;4.03;;;1.20;;
38901;SDS011;24661;53.566;9.910;2022-07-10T01:15:03;5.50;;;1.00;;
38901;SDS011;24661;53.566;9.910;2022-07-10T01:17:29;5.90;;;1.30;;
38901;SDS011;24661;53.566;9.910;2022-07-10T01:19:55;2.93;;;1.27;;
38901;SDS011;24661;53.566;9.910;2022-07-10T01:22:21;8.50;;;1.33;;
38901;SDS011;24661;53.566;9.910;2022-07-10T01:24:46;7.83;;;1.43;;
38901;SDS011;24661;53.566;9.910;2022-07-10T01:27:12;9.80;;;0.93;;
38901;SDS011;24661;53.566;9.910;2022-07-10T01:29:38;2.27;;;0.80;;
38901;SDS011;24661;53.566;9.910;2022-07-10T01:32:04;2.40;;;0.90;;
38901;SDS011;24661;53.566;9.910;2022-07-10T01:34:30;4.03;;;1.17;;
38901;SDS011;24661;53.566;9.910;2022-07-10T01:36:56;12.47;;;1.67;;
38901;SDS011;24661;53.566;9.910;2022-07-10T01:39:21;4.93;;;0.90;;
38901;SDS011;24661;53.566;9.910;2022-07-10T01:41:47;7.27;;;2.03;;
38901;SDS011;24661;53.566;9.910;2022-07-10T01:44:13;3.63;;;1.27;;
38901;SDS011;24661;53.566;9.910;2022-07-10T01:46:45;9.63;;;1.20;;
38901;SDS011;24661;53.566;9.910;2022-07-10T01:49:11;4.07;;;1.57;;
38901;SDS011;24661;53.566;9.910;2022-07-10T01:51:37;7.37;;;1.73;;
38901;SDS011;24661;53.566;9.910;2022-07-10T01:54:03;5.77;;;1.40;;
38901;SDS011;24661;53.566;9.910;2022-07-10T01:56:28;5.20;;;1.07;;
38901;SDS011;24661;53.566;9.910;2022-07-10T01:58:54;9.10;;;1.47;;
38901;SDS011;24661;53.566;9.910;2022-07-10T02:01:19;8.60;;;1.43;;
38901;SDS011;24661;53.566;9.910;2022-07-10T02:03:45;6.50;;;1.50;;
38901;SDS011;24661;53.566;9.910;2022-07-10T02:06:29;11.50;;;2.47;;
38901;SDS011;24661;53.566;9.910;2022-07-10T02:08:55;9.37;;;1.33;;
38901;SDS011;24661;53.566;9.910;2022-07-10T02:11:20;5.97;;;1.10;;
38901;SDS011;24661;53.566;9.910;2022-07-10T02:13:46;5.20;;;2.03;;
38901;SDS011;24661;53.566;9.910;2022-07-10T02:16:11;3.70;;;1.13;;
38901;SDS011;24661;53.566;9.910;2022-07-10T02:18:37;5.53;;;1.00;;
38901;SDS011;24661;53.566;9.910;2022-07-10T02:21:04;2.27;;;1.37;;
38901;SDS011;24661;53.566;9.910;2022-07-10T02:23:29;5.80;;;1.20;;
38901;SDS011;24661;53.566;9.910;2022-07-10T02:25:55;5.57;;;1.07;;
38901;SDS011;24661;53.566;9.910;2022-07-10T02:28:21;5.67;;;1.93;;
38901;SDS011;24661;53.566;9.910;2022-07-10T02:30:46;4.67;;;1.00;;
38901;SDS011;24661;53.566;9.910;2022-07-10T02:33:12;4.20;;;1.47;;
38901;SDS011;24661;53.566;9.910;2022-07-10T02:35:37;8.80;;;2.07;;
38901;SDS011;24661;53.566;9.910;2022-07-10T02:38:03;4.83;;;1.30;;
38901;SDS011;24661;53.566;9.910;2022-07-10T02:40:29;7.83;;;1.30;;
38901;SDS011;24661;53.566;9.910;2022-07-10T02:42:54;9.63;;;1.77;;
38901;SDS011;24661;53.566;9.910;2022-07-10T02:45:20;5.67;;;1.20;;
38901;SDS011;24661;53.566;9.910;2022-07-10T02:47:45;3.80;;;1.67;;
38901;SDS011;24661;53.566;9.910;2022-07-10T02:50:11;7.93;;;1.57;;
38901;SDS011;24661;53.566;9.910;2022-07-10T02:52:36;8.57;;;2.10;;
38901;SDS011;24661;53.566;9.910;2022-07-10T02:55:02;6.90;;;1.70;;
38901;SDS011;24661;53.566;9.910;2022-07-10T02:57:28;8.33;;;1.63;;
38901;SDS011;24661;53.566;9.910;2022-07-10T02:59:53;8.77;;;1.80;;
38901;SDS011;24661;53.566;9.910;2022-07-10T03:02:19;4.90;;;1.37;;
38901;SDS011;24661;53.566;9.910;2022-07-10T03:04:45;8.60;;;1.37;;
38901;SDS011;24661;53.566;9.910;2022-07-10T03:07:10;4.23;;;2.00;;
38901;SDS011;24661;53.566;9.910;2022-07-10T03:09:36;7.27;;;1.57;;
38901;SDS011;24661;53.566;9.910;2022-07-10T03:12:01;9.73;;;2.33;;
38901;SDS011;24661;53.566;9.910;2022-07-10T03:14:27;6.87;;;1.77;;
38901;SDS011;24661;53.566;9.910;2022-07-10T03:16:53;11.47;;;1.50;;
38901;SDS011;24661;53.566;9.910;2022-07-10T03:19:18;8.47;;;1.90;;
38901;SDS011;24661;53.566;9.910;2022-07-10T04:28:55;9.53;;;2.07;;
38901;SDS011;24661;53.566;9.910;2022-07-10T04:31:21;7.80;;;2.47;;
38901;SDS011;24661;53.566;9.910;2022-07-10T04:33:47;4.63;;;1.70;;
38901;SDS011;24661;53.566;9.910;2022-07-10T04:36:13;12.47;;;2.53;;
38901;SDS011;24661;53.566;9.910;2022-07-10T04:38:38;11.90;;;3.60;;
38901;SDS011;24661;53.566;9.910;2022-07-10T04:41:04;10.23;;;2.17;;
38901;SDS011;24661;53.566;9.910;2022-07-10T04:43:30;12.20;;;2.87;;
38901;SDS011;24661;53.566;9.910;2022-07-10T04:45:56;9.67;;;2.90;;
38901;SDS011;24661;53.566;9.910;2022-07-10T04:48:21;13.73;;;2.40;;
38901;SDS011;24661;53.566;9.910;2022-07-10T04:50:47;11.63;;;2.90;;
38901;SDS011;24661;53.566;9.910;2022-07-10T04:53:15;15.60;;;2.67;;
38901;SDS011;24661;53.566;9.910;2022-07-10T04:55:41;16.07;;;2.93;;
38901;SDS011;24661;53.566;9.910;2022-07-10T04:58:06;15.27;;;3.03;;
38901;SDS011;24661;53.566;9.910;2022-07-10T05:00:32;18.23;;;3.37;;
38901;SDS011;24661;53.566;9.910;2022-07-10T05:02:57;19.63;;;3.23;;
38901;SDS011;24661;53.566;9.910;2022-07-10T05:05:23;12.37;;;2.80;;
38901;SDS011;24661;53.566;9.910;2022-07-10T05:07:48;16.07;;;3.00;;
38901;SDS011;24661;53.566;9.910;2022-07-10T05:10:14;16.80;;;3.30;;
38901;SDS011;24661;53.566;9.910;2022-07-10T05:12:40;11.60;;;2.40;;
38901;SDS011;24661;53.566;9.910;2022-07-10T05:15:05;11.00;;;3.27;;
38901;SDS011;24661;53.566;9.910;2022-07-10T05:17:32;12.27;;;3.00;;
38901;SDS011;24661;53.566;9.910;2022-07-10T05:19:57;15.73;;;2.70;;
38901;SDS011;24661;53.566;9.910;2022-07-10T05:22:23;17.00;;;3.57;;
38901;SDS011;24661;53.566;9.910;2022-07-10T05:24:50;12.87;;;3.10;;
38901;SDS011;24661;53.566;9.910;2022-07-10T05:27:16;14.80;;;3.00;;
38901;SDS011;24661;53.566;9.910;2022-07-10T05:29:44;11.50;;;3.07;;
38901;SDS011;24661;53.566;9.910;2022-07-10T05:32:09;16.10;;;4.17;;
38901;SDS011;24661;53.566;9.910;2022-07-10T05:34:35;22.10;;;2.60;;
38901;SDS011;24661;53.566;9.910;2022-07-10T05:37:00;20.10;;;3.50;;
38901;SDS011;24661;53.566;9.910;2022-07-10T05:39:26;18.03;;;3.03;;
38901;SDS011;24661;53.566;9.910;2022-07-10T05:41:52;19.53;;;3.03;;
38901;SDS011;24661;53.566;9.910;2022-07-10T05:44:19;9.20;;;2.70;;
38901;SDS011;24661;53.566;9.910;2022-07-10T05:46:45;9.20;;;2.27;;
38901;SDS011;24661;53.566;9.910;2022-07-10T05:49:11;15.47;;;3.03;;
38901;SDS011;24661;53.566;9.910;2022-07-10T05:51:37;17.00;;;2.90;;
38901;SDS011;24661;53.566;9.910;2022-07-10T05:54:03;15.33;;;2.67;;
38901;SDS011;24661;53.566;9.910;2022-07-10T05:56:29;10.10;;;2.53;;
38901;SDS011;24661;53.566;9.910;2022-07-10T05:58:54;13.93;;;3.10;;
38901;SDS011;24661;53.566;9.910;2022-07-10T06:01:21;20.30;;;3.17;;
38901;SDS011;24661;53.566;9.910;2022-07-10T06:03:47;7.57;;;2.93;;
38901;SDS011;24661;53.566;9.910;2022-07-10T06:06:12;15.70;;;2.57;;
38901;SDS011;24661;53.566;9.910;2022-07-10T06:08:42;18.10;;;4.30;;
38901;SDS011;24661;53.566;9.910;2022-07-10T06:11:08;11.40;;;2.63;;
38901;SDS011;24661;53.566;9.910;2022-07-10T06:13:33;11.50;;;2.43;;
38901;SDS011;24661;53.566;9.910;2022-07-10T06:18:34;12.97;;;2.40;;
38901;SDS011;24661;53.566;9.910;2022-07-10T06:21:00;11.03;;;2.30;;
38901;SDS011;24661;53.566;9.910;2022-07-10T06:23:26;17.97;;;3.50;;
38901;SDS011;24661;53.566;9.910;2022-07-10T06:30:55;16.33;;;2.47;;
38901;SDS011;24661;53.566;9.910;2022-07-10T06:33:20;12.33;;;3.40;;
38901;SDS011;24661;53.566;9.910;2022-07-10T06:38:20;12.77;;;2.40;;
38901;SDS011;24661;53.566;9.910;2022-07-10T06:40:45;13.10;;;2.63;;
38901;SDS011;24661;53.566;9.910;2022-07-10T06:43:12;15.67;;;2.63;;
38901;SDS011;24661;53.566;9.910;2022-07-10T06:45:38;8.33;;;2.30;;
38901;SDS011;24661;53.566;9.910;2022-07-10T06:48:04;14.60;;;3.43;;
38901;SDS011;24661;53.566;9.910;2022-07-10T06:50:30;13.70;;;3.00;;
38901;SDS011;24661;53.566;9.910;2022-07-10T06:52:58;14.17;;;2.70;;
38901;SDS011;24661;53.566;9.910;2022-07-10T06:55:24;17.03;;;3.10;;
38901;SDS011;24661;53.566;9.910;2022-07-10T06:57:52;10.90;;;2.80;;
38901;SDS011;24661;53.566;9.910;2022-07-10T07:00:18;16.63;;;2.90;;
38901;SDS011;24661;53.566;9.910;2022-07-10T07:02:44;18.63;;;3.10;;
38901;SDS011;24661;53.566;9.910;2022-07-10T07:05:10;12.40;;;2.83;;
38901;SDS011;24661;53.566;9.910;2022-07-10T07:07:36;12.43;;;2.83;;
38901;SDS011;24661;53.566;9.910;2022-07-10T07:10:02;16.93;;;4.23;;
38901;SDS011;24661;53.566;9.910;2022-07-10T07:12:29;18.50;;;2.70;;
38901;SDS011;24661;53.566;9.910;2022-07-10T07:14:54;12.07;;;2.47;;
38901;SDS011;24661;53.566;9.910;2022-07-10T07:17:20;11.63;;;3.13;;
38901;SDS011;24661;53.566;9.910;2022-07-10T07:19:50;16.93;;;3.17;;
38901;SDS011;24661;53.566;9.910;2022-07-10T07:22:36;13.23;;;2.20;;
38901;SDS011;24661;53.566;9.910;2022-07-10T07:25:20;14.00;;;2.27;;
38901;SDS011;24661;53.566;9.910;2022-07-10T07:27:47;14.50;;;3.17;;
38901;SDS011;24661;53.566;9.910;2022-07-10T07:30:13;11.87;;;2.77;;
38901;SDS011;24661;53.566;9.910;2022-07-10T07:32:41;16.93;;;3.50;;
38901;SDS011;24661;53.566;9.910;2022-07-10T07:35:07;14.97;;;2.97;;
38901;SDS011;24661;53.566;9.910;2022-07-10T07:37:54;10.77;;;2.43;;
38901;SDS011;24661;53.566;9.910;2022-07-10T07:40:20;13.30;;;2.20;;
38901;SDS011;24661;53.566;9.910;2022-07-10T07:42:50;9.00;;;2.20;;
38901;SDS011;24661;53.566;9.910;2022-07-10T07:45:16;14.60;;;2.63;;
38901;SDS011;24661;53.566;9.910;2022-07-10T07:47:49;14.03;;;2.33;;
38901;SDS011;24661;53.566;9.910;2022-07-10T07:50:18;10.67;;;3.00;;
38901;SDS011;24661;53.566;9.910;2022-07-10T07:52:45;9.27;;;2.17;;
38901;SDS011;24661;53.566;9.910;2022-07-10T07:55:12;10.83;;;2.37;;
38901;SDS011;24661;53.566;9.910;2022-07-10T07:57:39;14.87;;;2.10;;
38901;SDS011;24661;53.566;9.910;2022-07-10T08:00:06;11.37;;;2.50;;
38901;SDS011;24661;53.566;9.910;2022-07-10T08:02:33;14.07;;;2.77;;
38901;SDS011;24661;53.566;9.910;2022-07-10T08:04:59;6.43;;;1.90;;
38901;SDS011;24661;53.566;9.910;2022-07-10T08:07:34;8.83;;;2.40;;
38901;SDS011;24661;53.566;9.910;2022-07-10T08:10:04;8.57;;;2.13;;
38901;SDS011;24661;53.566;9.910;2022-07-10T08:12:32;27.50;;;4.00;;
38901;SDS011;24661;53.566;9.910;2022-07-10T08:14:58;10.83;;;2.63;;
38901;SDS011;24661;53.566;9.910;2022-07-10T08:17:24;10.97;;;2.13;;
38901;SDS011;24661;53.566;9.910;2022-07-10T08:19:51;12.53;;;2.10;;
38901;SDS011;24661;53.566;9.910;2022-07-10T08:22:16;10.83;;;1.77;;
38901;SDS011;24661;53.566;9.910;2022-07-10T08:24:42;14.50;;;3.00;;
38901;SDS011;24661;53.566;9.910;2022-07-10T08:27:08;9.23;;;2.20;;
38901;SDS011;24661;53.566;9.910;2022-07-10T08:29:34;11.13;;;2.10;;
38901;SDS011;24661;53.566;9.910;2022-07-10T08:31:59;12.97;;;2.43;;
38901;SDS011;24661;53.566;9.910;2022-07-10T08:34:25;10.50;;;2.90;;
38901;SDS011;24661;53.566;9.910;2022-07-10T08:36:52;7.63;;;2.20;;
38901;SDS011;24661;53.566;9.910;2022-07-10T08:39:18;17.23;;;3.23;;
38901;SDS011;24661;53.566;9.910;2022-07-10T08:41:46;8.80;;;1.93;;
38901;SDS011;24661;53.566;9.910;2022-07-10T08:44:15;10.43;;;2.17;;
38901;SDS011;24661;53.566;9.910;2022-07-10T08:46:42;10.07;;;2.60;;
38901;SDS011;24661;53.566;9.910;2022-07-10T08:49:08;8.63;;;2.53;;
38901;SDS011;24661;53.566;9.910;2022-07-10T08:51:41;12.63;;;2.30;;
38901;SDS011;24661;53.566;9.910;2022-07-10T08:54:21;10.67;;;2.73;;
38901;SDS011;24661;53.566;9.910;2022-07-10T08:56:47;11.63;;;2.30;;
38901;SDS011;24661;53.566;9.910;2022-07-10T08:59:13;10.87;;;2.77;;
38901;SDS011;24661;53.566;9.910;2022-07-10T09:01:39;16.47;;;3.33;;
38901;SDS011;24661;53.566;9.910;2022-07-10T09:04:05;7.50;;;1.87;;
38901;SDS011;24661;53.566;9.910;2022-07-10T09:06:31;10.37;;;2.50;;
38901;SDS011;24661;53.566;9.910;2022-07-10T09:08:57;10.00;;;2.80;;
38901;SDS011;24661;53.566;9.910;2022-07-10T09:11:24;13.03;;;2.17;;
38901;SDS011;24661;53.566;9.910;2022-07-10T09:13:54;11.53;;;2.10;;
38901;SDS011;24661;53.566;9.910;2022-07-10T09:16:28;8.37;;;1.90;;
38901;SDS011;24661;53.566;9.910;2022-07-10T09:19:14;11.27;;;2.83;;
38901;SDS011;24661;53.566;9.910;2022-07-10T09:21:39;15.00;;;2.53;;
38901;SDS011;24661;53.566;9.910;2022-07-10T09:24:07;9.80;;;2.03;;
38901;SDS011;24661;53.566;9.910;2022-07-10T09:26:33;9.77;;;1.83;;
38901;SDS011;24661;53.566;9.910;2022-07-10T09:29:12;8.73;;;2.13;;
38901;SDS011;24661;53.566;9.910;2022-07-10T09:31:54;7.97;;;2.07;;
38901;SDS011;24661;53.566;9.910;2022-07-10T09:39:51;8.47;;;1.87;;
38901;SDS011;24661;53.566;9.910;2022-07-10T09:42:32;8.13;;;1.87;;
38901;SDS011;24661;53.566;9.910;2022-07-10T09:47:43;11.27;;;2.60;;
38901;SDS011;24661;53.566;9.910;2022-07-10T09:50:25;10.43;;;2.27;;
38901;SDS011;24661;53.566;9.910;2022-07-10T09:52:51;15.43;;;1.90;;
38901;SDS011;24661;53.566;9.910;2022-07-10T09:55:21;8.00;;;1.73;;
38901;SDS011;24661;53.566;9.910;2022-07-10T09:57:53;6.50;;;1.87;;
38901;SDS011;24661;53.566;9.910;2022-07-10T10:00:23;7.27;;;1.43;;
38901;SDS011;24661;53.566;9.910;2022-07-10T10:02:54;8.47;;;1.60;;
38901;SDS011;24661;53.566;9.910;2022-07-10T10:05:22;11.37;;;2.53;;
38901;SDS011;24661;53.566;9.910;2022-07-10T10:07:52;7.33;;;1.53;;
38901;SDS011;24661;53.566;9.910;2022-07-10T10:10:18;9.20;;;2.53;;
38901;SDS011;24661;53.566;9.910;2022-07-10T10:12:47;7.27;;;1.63;;
38901;SDS011;24661;53.566;9.910;2022-07-10T10:15:17;10.03;;;1.97;;
38901;SDS011;24661;53.566;9.910;2022-07-10T10:17:43;6.10;;;1.50;;
38901;SDS011;24661;53.566;9.910;2022-07-10T10:20:10;6.37;;;1.13;;
38901;SDS011;24661;53.566;9.910;2022-07-10T10:22:56;5.43;;;1.80;;
38901;SDS011;24661;53.566;9.910;2022-07-10T10:25:24;5.40;;;1.73;;
38901;SDS011;24661;53.566;9.910;2022-07-10T10:27:51;6.27;;;1.40;;
38901;SDS011;24661;53.566;9.910;2022-07-10T10:30:17;6.70;;;2.20;;
38901;SDS011;24661;53.566;9.910;2022-07-10T10:32:43;9.43;;;1.87;;
38901;SDS011;24661;53.566;9.910;2022-07-10T10:35:09;5.90;;;1.70;;
38901;SDS011;24661;53.566;9.910;2022-07-10T10:37:38;7.47;;;1.67;;
38901;SDS011;24661;53.566;9.910;2022-07-10T10:40:08;5.43;;;1.43;;
38901;SDS011;24661;53.566;9.910;2022-07-10T10:42:36;10.97;;;1.93;;
38901;SDS011;24661;53.566;9.910;2022-07-10T10:48:01;6.40;;;1.53;;
38901;SDS011;24661;53.566;9.910;2022-07-10T10:50:36;10.03;;;2.03;;
38901;SDS011;24661;53.566;9.910;2022-07-10T10:53:03;9.87;;;1.60;;
38901;SDS011;24661;53.566;9.910;2022-07-10T10:55:29;6.40;;;1.57;;
38901;SDS011;24661;53.566;9.910;2022-07-10T10:57:54;3.50;;;1.30;;
38901;SDS011;24661;53.566;9.910;2022-07-10T11:00:39;11.27;;;1.43;;
38901;SDS011;24661;53.566;9.910;2022-07-10T11:03:14;2.87;;;1.23;;
38901;SDS011;24661;53.566;9.910;2022-07-10T11:05:49;8.20;;;2.23;;
38901;SDS011;24661;53.566;9.910;2022-07-10T11:08:34;4.90;;;1.27;;
38901;SDS011;24661;53.566;9.910;2022-07-10T11:13:59;9.87;;;1.43;;
38901;SDS011;24661;53.566;9.910;2022-07-10T11:16:24;10.90;;;2.03;;
38901;SDS011;24661;53.566;9.910;2022-07-10T11:18:52;3.37;;;1.10;;
38901;SDS011;24661;53.566;9.910;2022-07-10T11:21:20;6.13;;;1.23;;
38901;SDS011;24661;53.566;9.910;2022-07-10T11:26:35;8.03;;;1.67;;
38901;SDS011;24661;53.566;9.910;2022-07-10T11:29:05;2.63;;;1.10;;
38901;SDS011;24661;53.566;9.910;2022-07-10T11:31:31;6.57;;;1.90;;
38901;SDS011;24661;53.566;9.910;2022-07-10T11:34:03;4.53;;;1.67;;
38901;SDS011;24661;53.566;9.910;2022-07-10T11:36:29;6.57;;;1.27;;
38901;SDS011;24661;53.566;9.910;2022-07-10T11:39:06;5.97;;;1.47;;
38901;SDS011;24661;53.566;9.910;2022-07-10T11:41:33;5.77;;;1.33;;
38901;SDS011;24661;53.566;9.910;2022-07-10T11:44:02;8.87;;;1.80;;
38901;SDS011;24661;53.566;9.910;2022-07-10T11:46:29;3.97;;;1.50;;
38901;SDS011;24661;53.566;9.910;2022-07-10T11:48:56;8.17;;;1.63;;
38901;SDS011;24661;53.566;9.910;2022-07-10T11:51:26;5.23;;;1.40;;
38901;SDS011;24661;53.566;9.910;2022-07-10T11:56:30;7.37;;;1.83;;
38901;SDS011;24661;53.566;9.910;2022-07-10T12:01:24;11.13;;;1.50;;
38901;SDS011;24661;53.566;9.910;2022-07-10T12:03:53;9.53;;;1.80;;
38901;SDS011;24661;53.566;9.910;2022-07-10T12:06:30;8.87;;;1.80;;
38901;SDS011;24661;53.566;9.910;2022-07-10T12:09:03;8.93;;;1.77;;
38901;SDS011;24661;53.566;9.910;2022-07-10T12:11:30;6.87;;;1.87;;
38901;SDS011;24661;53.566;9.910;2022-07-10T12:14:08;6.30;;;1.37;;
38901;SDS011;24661;53.566;9.910;2022-07-10T12:16:40;7.07;;;1.60;;
38901;SDS011;24661;53.566;9.910;2022-07-10T12:19:07;7.50;;;1.43;;
38901;SDS011;24661;53.566;9.910;2022-07-10T12:21:33;7.30;;;1.30;;
38901;SDS011;24661;53.566;9.910;2022-07-10T12:24:00;5.43;;;1.50;;
38901;SDS011;24661;53.566;9.910;2022-07-10T12:26:35;7.57;;;1.70;;
38901;SDS011;24661;53.566;9.910;2022-07-10T12:29:02;7.63;;;2.00;;
38901;SDS011;24661;53.566;9.910;2022-07-10T12:31:29;6.17;;;1.67;;
38901;SDS011;24661;53.566;9.910;2022-07-10T12:34:05;6.43;;;1.63;;
38901;SDS011;24661;53.566;9.910;2022-07-10T12:36:45;7.60;;;1.83;;
38901;SDS011;24661;53.566;9.910;2022-07-10T12:39:12;10.03;;;1.70;;
38901;SDS011;24661;53.566;9.910;2022-07-10T12:41:55;9.23;;;2.07;;
38901;SDS011;24661;53.566;9.910;2022-07-10T12:44:35;8.13;;;1.77;;
38901;SDS011;24661;53.566;9.910;2022-07-10T12:47:03;7.23;;;1.50;;
38901;SDS011;24661;53.566;9.910;2022-07-10T12:52:23;3.97;;;1.33;;
38901;SDS011;24661;53.566;9.910;2022-07-10T12:55:06;4.63;;;1.03;;
38901;SDS011;24661;53.566;9.910;2022-07-10T12:57:45;5.50;;;1.50;;
38901;SDS011;24661;53.566;9.910;2022-07-10T13:00:10;5.83;;;2.00;;
38901;SDS011;24661;53.566;9.910;2022-07-10T13:02:38;6.47;;;1.67;;
38901;SDS011;24661;53.566;9.910;2022-07-10T13:05:04;5.53;;;1.27;;
38901;SDS011;24661;53.566;9.910;2022-07-10T13:07:31;8.40;;;1.30;;
38901;SDS011;24661;53.566;9.910;2022-07-10T13:10:00;6.80;;;1.87;;
38901;SDS011;24661;53.566;9.910;2022-07-10T13:12:27;7.53;;;1.47;;
38901;SDS011;24661;53.566;9.910;2022-07-10T13:14:53;10.27;;;1.40;;
38901;SDS011;24661;53.566;9.910;2022-07-10T13:17:19;6.47;;;1.40;;
38901;SDS011;24661;53.566;9.910;2022-07-10T13:19:44;6.60;;;1.33;;
38901;SDS011;24661;53.566;9.910;2022-07-10T13:22:10;5.67;;;1.63;;
38901;SDS011;24661;53.566;9.910;2022-07-10T13:24:35;4.23;;;1.23;;
38901;SDS011;24661;53.566;9.910;2022-07-10T13:27:01;7.77;;;1.60;;
38901;SDS011;24661;53.566;9.910;2022-07-10T13:29:27;11.30;;;1.50;;
38901;SDS011;24661;53.566;9.910;2022-07-10T13:31:52;7.87;;;2.10;;
38901;SDS011;24661;53.566;9.910;2022-07-10T13:34:18;8.37;;;1.90;;
38901;SDS011;24661;53.566;9.910;2022-07-10T13:36:43;6.87;;;1.40;;
38901;SDS011;24661;53.566;9.910;2022-07-10T13:39:09;8.90;;;1.50;;
38901;SDS011;24661;53.566;9.910;2022-07-10T13:41:35;9.87;;;2.37;;
38901;SDS011;24661;53.566;9.910;2022-07-10T13:44:00;5.77;;;1.43;;
38901;SDS011;24661;53.566;9.910;2022-07-10T13:46:26;7.73;;;1.30;;
38901;SDS011;24661;53.566;9.910;2022-07-10T13:48:52;8.00;;;1.60;;
38901;SDS011;24661;53.566;9.910;2022-07-10T13:51:18;6.63;;;1.50;;
38901;SDS011;24661;53.566;9.910;2022-07-10T13:53:43;8.80;;;2.03;;
38901;SDS011;24661;53.566;9.910;2022-07-10T13:56:09;9.50;;;1.63;;
38901;SDS011;24661;53.566;9.910;2022-07-10T13:58:35;9.53;;;1.87;;
38901;SDS011;24661;53.566;9.910;2022-07-10T14:01:01;9.00;;;1.60;;
38901;SDS011;24661;53.566;9.910;2022-07-10T14:03:30;5.00;;;1.60;;
38901;SDS011;24661;53.566;9.910;2022-07-10T14:05:56;9.37;;;1.80;;
38901;SDS011;24661;53.566;9.910;2022-07-10T14:08:22;7.37;;;1.60;;
38901;SDS011;24661;53.566;9.910;2022-07-10T14:10:48;8.47;;;2.07;;
38901;SDS011;24661;53.566;9.910;2022-07-10T14:13:14;11.87;;;1.80;;
38901;SDS011;24661;53.566;9.910;2022-07-10T14:15:40;6.50;;;1.83;;
38901;SDS011;24661;53.566;9.910;2022-07-10T14:18:09;8.63;;;1.47;;
38901;SDS011;24661;53.566;9.910;2022-07-10T14:20:35;7.33;;;1.50;;
38901;SDS011;24661;53.566;9.910;2022-07-10T14:23:19;4.00;;;1.30;;
38901;SDS011;24661;53.566;9.910;2022-07-10T14:25:45;9.63;;;1.80;;
38901;SDS011;24661;53.566;9.910;2022-07-10T14:28:11;8.77;;;1.80;;
38901;SDS011;24661;53.566;9.910;2022-07-10T14:30:38;6.63;;;1.43;;
38901;SDS011;24661;53.566;9.910;2022-07-10T14:33:05;8.03;;;1.60;;
38901;SDS011;24661;53.566;9.910;2022-07-10T14:35:31;6.20;;;1.30;;
38901;SDS011;24661;53.566;9.910;2022-07-10T14:37:57;5.97;;;1.87;;
38901;SDS011;24661;53.566;9.910;2022-07-10T14:40:22;8.87;;;1.63;;
38901;SDS011;24661;53.566;9.910;2022-07-10T14:42:48;10.67;;;1.80;;
38901;SDS011;24661;53.566;9.910;2022-07-10T14:45:14;7.77;;;1.47;;
38901;SDS011;24661;53.566;9.910;2022-07-10T14:47:39;10.23;;;1.57;;
38901;SDS011;24661;53.566;9.910;2022-07-10T14:50:05;8.00;;;2.00;;
38901;SDS011;24661;53.566;9.910;2022-07-10T14:52:31;4.23;;;1.23;;
38901;SDS011;24661;53.566;9.910;2022-07-10T14:54:58;6.30;;;1.60;;
38901;SDS011;24661;53.566;9.910;2022-07-10T14:57:24;5.70;;;1.80;;
38901;SDS011;24661;53.566;9.910;2022-07-10T14:59:49;6.57;;;1.37;;
38901;SDS011;24661;53.566;9.910;2022-07-10T15:02:15;8.30;;;1.70;;
38901;SDS011;24661;53.566;9.910;2022-07-10T15:04:40;6.20;;;1.50;;
38901;SDS011;24661;53.566;9.910;2022-07-10T15:07:06;7.37;;;1.57;;
38901;SDS011;24661;53.566;9.910;2022-07-10T15:09:32;5.13;;;1.60;;
38901;SDS011;24661;53.566;9.910;2022-07-10T15:11:57;6.93;;;1.63;;
38901;SDS011;24661;53.566;9.910;2022-07-10T15:14:23;7.23;;;1.73;;
38901;SDS011;24661;53.566;9.910;2022-07-10T15:16:49;8.10;;;1.80;;
38901;SDS011;24661;53.566;9.910;2022-07-10T15:19:15;6.27;;;1.50;;
38901;SDS011;24661;53.566;9.910;2022-07-10T15:21:40;8.17;;;2.40;;
38901;SDS011;24661;53.566;9.910;2022-07-10T15:24:06;7.23;;;1.57;;
38901;SDS011;24661;53.566;9.910;2022-07-10T15:26:31;7.10;;;1.83;;
38901;SDS011;24661;53.566;9.910;2022-07-10T15:28:57;7.47;;;1.93;;
38901;SDS011;24661;53.566;9.910;2022-07-10T15:31:23;7.00;;;2.00;;
38901;SDS011;24661;53.566;9.910;2022-07-10T15:33:49;6.37;;;1.43;;
38901;SDS011;24661;53.566;9.910;2022-07-10T15:36:15;4.73;;;1.67;;
38901;SDS011;24661;53.566;9.910;2022-07-10T15:38:41;11.53;;;1.90;;
38901;SDS011;24661;53.566;9.910;2022-07-10T15:41:07;8.43;;;1.97;;
38901;SDS011;24661;53.566;9.910;2022-07-10T15:43:33;9.90;;;1.53;;
38901;SDS011;24661;53.566;9.910;2022-07-10T15:45:58;7.90;;;1.70;;
38901;SDS011;24661;53.566;9.910;2022-07-10T15:48:24;4.73;;;1.30;;
38901;SDS011;24661;53.566;9.910;2022-07-10T15:50:50;4.83;;;1.47;;
38901;SDS011;24661;53.566;9.910;2022-07-10T15:53:16;6.40;;;1.60;;
38901;SDS011;24661;53.566;9.910;2022-07-10T15:55:42;7.23;;;1.40;;
38901;SDS011;24661;53.566;9.910;2022-07-10T15:58:08;11.80;;;1.90;;
38901;SDS011;24661;53.566;9.910;2022-07-10T16:00:35;4.97;;;1.40;;
38901;SDS011;24661;53.566;9.910;2022-07-10T16:03:01;9.63;;;2.00;;
38901;SDS011;24661;53.566;9.910;2022-07-10T16:05:26;7.80;;;1.23;;
38901;SDS011;24661;53.566;9.910;2022-07-10T16:07:52;14.67;;;3.47;;
38901;SDS011;24661;53.566;9.910;2022-07-10T16:10:18;6.83;;;1.97;;
38901;SDS011;24661;53.566;9.910;2022-07-10T16:12:44;4.97;;;2.03;;
38901;SDS011;24661;53.566;9.910;2022-07-10T16:15:09;8.03;;;1.50;;
38901;SDS011;24661;53.566;9.910;2022-07-10T16:17:35;6.73;;;1.80;;
38901;SDS011;24661;53.566;9.910;2022-07-10T16:20:00;8.13;;;1.80;;
38901;SDS011;24661;53.566;9.910;2022-07-10T16:22:26;9.50;;;2.37;;
38901;SDS011;24661;53.566;9.910;2022-07-10T16:24:51;3.63;;;1.60;;
38901;SDS011;24661;53.566;9.910;2022-07-10T16:27:36;10.40;;;1.80;;
38901;SDS011;24661;53.566;9.910;2022-07-10T16:30:02;4.73;;;1.53;;
38901;SDS011;24661;53.566;9.910;2022-07-10T16:32:29;9.03;;;1.73;;
38901;SDS011;24661;53.566;9.910;2022-07-10T16:34:54;6.40;;;1.63;;
38901;SDS011;24661;53.566;9.910;2022-07-10T16:37:24;6.93;;;2.00;;
38901;SDS011;24661;53.566;9.910;2022-07-10T16:39:49;7.03;;;1.70;;